Time;durP1;ratioP1;P1;durP2;ratioP2;P2;SDS_P1;SDS_P2;PMS_P1;PMS_P2;Temp;Humidity;BMP_temperature;BMP_pressure;BME280_temperature;BME280_humidity;BME280_pressure;Samples;Min_cycle;Max_cycle;Signal;HPM_P1;HPM_P2
2023/03/02 05:38:57;;;;;;;21.80;11.80;;;;;;;-1.09;100.00;100743.79;109866;1249;22508;-49
2023/03/02 05:41:24;;;;;;;19.00;10.70;;;;;;;-0.96;100.00;100744.16;111796;1248;22890;-50
2023/03/02 05:43:51;;;;;;;25.60;11.60;;;;;;;-0.85;100.00;100748.17;113018;1248;22398;-42
2023/03/02 05:46:17;;;;;;;24.10;10.50;;;;;;;-0.74;100.00;100749.20;112714;1249;23071;-50
2023/03/02 05:48:47;;;;;;;17.60;9.30;;;;;;;-0.65;100.00;100746.29;111789;1249;25458;-42
2023/03/02 05:51:20;;;;;;;21.90;10.90;;;;;;;-0.57;100.00;100748.79;111834;1249;25310;-43
2023/03/02 05:53:46;;;;;;;17.30;10.40;;;;;;;-0.49;100.00;100747.61;111226;1249;22274;-42
2023/03/02 05:56:13;;;;;;;13.50;8.40;;;;;;;-0.43;100.00;100747.43;110478;1249;22514;-51
2023/03/02 05:58:40;;;;;;;20.00;9.50;;;;;;;-0.35;100.00;100748.17;111852;1249;22216;-50
2023/03/02 06:01:09;;;;;;;18.90;10.40;;;;;;;-0.29;100.00;100747.60;112811;1249;22524;-43
2023/03/02 06:03:37;;;;;;;18.40;10.50;;;;;;;-0.23;100.00;100750.64;112304;1249;22710;-41
2023/03/02 06:06:04;;;;;;;17.50;9.80;;;;;;;-0.16;100.00;100750.16;112202;1249;222127;-51
2023/03/02 06:08:31;;;;;;;20.80;10.30;;;;;;;-0.08;100.00;100749.87;112983;1248;23171;-42
2023/03/02 06:10:58;;;;;;;17.50;9.60;;;;;;;-0.02;100.00;100745.88;112497;1249;22450;-50
2023/03/02 06:13:25;;;;;;;20.60;9.80;;;;;;;0.04;100.00;100745.49;112951;1249;22908;-51
2023/03/02 06:15:52;;;;;;;21.50;10.10;;;;;;;0.10;100.00;100744.41;112408;1249;22510;-42
2023/03/02 06:18:20;;;;;;;15.20;9.70;;;;;;;0.17;100.00;100746.48;112890;1249;22965;-43
2023/03/02 06:20:48;;;;;;;16.80;10.30;;;;;;;0.24;100.00;100746.83;112955;1249;22387;-50
2023/03/02 06:23:15;;;;;;;20.30;11.00;;;;;;;0.32;100.00;100747.38;112582;1249;22501;-50
2023/03/02 06:25:47;;;;;;;22.20;10.30;;;;;;;0.41;100.00;100750.21;112886;1249;22395;-51
2023/03/02 06:28:15;;;;;;;21.50;11.20;;;;;;;0.47;100.00;100745.02;112881;1249;22417;-43
2023/03/02 06:30:42;;;;;;;24.70;10.70;;;;;;;0.53;100.00;100743.59;112408;1249;22755;-43
2023/03/02 06:33:09;;;;;;;21.80;10.50;;;;;;;0.58;100.00;100741.72;112691;1249;22386;-52
2023/03/02 06:35:52;;;;;;;15.80;9.60;;;;;;;0.63;100.00;100744.73;112494;1249;22535;-52
2023/03/02 06:38:36;;;;;;;21.10;9.60;;;;;;;0.71;100.00;100745.44;112037;1250;22438;-51
2023/03/02 06:41:52;;;;;;;21.50;9.90;;;;;;;0.75;100.00;100744.80;112152;1249;22436;-51
2023/03/02 06:44:47;;;;;;;20.30;9.10;;;;;;;0.83;100.00;100743.92;112010;1249;22656;-50
2023/03/02 06:54:27;;;;;;;14.20;8.30;;;;;;;1.15;100.00;100744.20;111661;1249;22463;-52
2023/03/02 06:57:22;;;;;;;19.80;9.50;;;;;;;1.21;100.00;100740.86;111991;1249;23782;-43
2023/03/02 06:59:55;;;;;;;19.40;8.60;;;;;;;1.26;100.00;100744.86;112496;1249;22341;-52
2023/03/02 07:02:25;;;;;;;18.80;8.50;;;;;;;1.31;100.00;100747.51;112503;1249;22435;-54
2023/03/02 07:04:58;;;;;;;16.00;8.60;;;;;;;1.38;99.98;100748.30;112886;1249;22210;-43
2023/03/02 07:07:25;;;;;;;;;;;;;;;1.43;99.87;100746.29;112167;1249;22538;-43
2023/03/02 07:09:52;;;;;;;16.10;8.50;;;;;;;1.48;99.46;100751.69;112851;1249;23152;-43
2023/03/02 07:12:19;;;;;;;16.50;7.90;;;;;;;1.55;99.72;100751.82;112614;1249;22471;-43
2023/03/02 07:14:51;;;;;;;21.10;7.70;;;;;;;1.63;98.98;100753.17;112495;1248;23231;-51
2023/03/02 07:17:22;;;;;;;18.00;8.00;;;;;;;1.67;98.53;100749.58;111985;1249;22576;-45
2023/03/02 07:20:02;;;;;;;14.50;7.40;;;;;;;1.73;97.51;100754.11;112188;1249;22845;-52
2023/03/02 07:22:48;;;;;;;;;;;;;;;1.77;96.20;100754.28;112565;1249;22934;-44
2023/03/02 07:25:18;;;;;;;15.30;7.30;;;;;;;1.79;95.45;100749.41;112802;1249;22817;-44
2023/03/02 07:27:48;;;;;;;13.40;7.00;;;;;;;1.82;93.64;100748.67;112382;1249;23364;-53
2023/03/02 07:30:19;;;;;;;14.30;6.70;;;;;;;1.84;94.25;100751.33;112818;1249;23300;-43
2023/03/02 07:32:47;;;;;;;15.30;6.80;;;;;;;1.90;93.32;100750.21;112695;1249;22760;-51
2023/03/02 07:35:16;;;;;;;15.00;7.50;;;;;;;1.96;93.02;100747.03;112747;1249;22381;-45
2023/03/02 07:37:43;;;;;;;15.50;8.80;;;;;;;2.04;92.09;100751.30;112543;1249;22288;-44
2023/03/02 07:40:10;;;;;;;17.30;7.90;;;;;;;2.11;91.06;100752.27;112733;1249;22497;-53
2023/03/02 07:42:37;;;;;;;24.90;12.90;;;;;;;2.16;90.50;100746.11;112766;1249;23122;-44
2023/03/02 07:45:07;;;;;;;18.20;10.20;;;;;;;2.23;89.53;100745.55;112636;1249;22366;-44
2023/03/02 07:47:37;;;;;;;17.70;8.30;;;;;;;2.32;88.33;100739.01;112546;1249;23109;-44
2023/03/02 07:50:05;;;;;;;16.20;7.80;;;;;;;2.41;88.14;100737.34;112886;1248;22329;-52
2023/03/02 07:52:33;;;;;;;18.50;5.90;;;;;;;2.50;85.16;100733.88;112851;1249;22375;-45
2023/03/02 07:55:00;;;;;;;14.10;5.60;;;;;;;2.53;84.37;100734.68;112721;1249;22418;-52
2023/03/02 07:57:27;;;;;;;24.70;11.10;;;;;;;2.57;84.04;100725.73;112897;1249;22403;-53
2023/03/02 07:59:54;;;;;;;11.50;5.90;;;;;;;2.67;83.58;100723.54;112299;1249;22378;-52
2023/03/02 08:02:21;;;;;;;28.20;9.30;;;;;;;2.77;82.27;100730.11;112524;1249;22433;-44
2023/03/02 08:04:57;;;;;;;20.70;8.30;;;;;;;2.85;81.59;100724.92;112147;1249;22433;-45
2023/03/02 08:07:30;;;;;;;28.20;11.30;;;;;;;2.97;79.73;100732.05;112059;1249;23391;-51
2023/03/02 08:10:27;;;;;;;18.70;8.10;;;;;;;3.06;78.87;100731.02;112198;1249;22503;-43
2023/03/02 08:13:25;;;;;;;10.80;5.10;;;;;;;3.14;78.20;100721.49;112561;1249;23062;-52
2023/03/02 08:16:10;;;;;;;7.70;4.60;;;;;;;3.23;76.50;100728.05;112871;1249;22427;-44
2023/03/02 08:19:32;;;;;;;9.30;4.10;;;;;;;3.29;76.49;100722.04;112573;1249;22627;-51
2023/03/02 08:22:18;;;;;;;13.70;5.20;;;;;;;3.34;74.81;100724.99;112726;1249;22402;-44
2023/03/02 08:24:48;;;;;;;10.70;5.10;;;;;;;3.41;75.11;100725.23;112072;1249;22499;-45
2023/03/02 08:27:21;;;;;;;11.60;4.10;;;;;;;3.48;75.09;100723.77;112570;1249;23273;-43
2023/03/02 08:29:48;;;;;;;11.70;4.40;;;;;;;3.58;74.99;100729.78;112015;1248;22512;-43
2023/03/02 08:32:16;;;;;;;9.30;4.20;;;;;;;3.65;72.77;100721.41;111256;1249;22492;-45
2023/03/02 08:34:50;;;;;;;13.60;4.70;;;;;;;3.66;72.02;100723.02;111780;1249;22495;-51
2023/03/02 08:37:26;;;;;;;8.00;4.10;;;;;;;3.69;71.57;100725.71;112940;1249;23436;-53
2023/03/02 08:39:53;;;;;;;9.60;3.60;;;;;;;3.75;70.10;100724.68;111750;1249;22500;-52
2023/03/02 08:42:22;;;;;;;12.20;4.00;;;;;;;3.78;68.95;100720.99;112644;1249;22946;-52
2023/03/02 08:44:50;;;;;;;8.10;2.90;;;;;;;3.79;66.99;100726.74;112721;1249;22685;-44
2023/03/02 08:47:17;;;;;;;6.40;2.60;;;;;;;3.82;66.08;100723.91;112871;1249;22477;-51
2023/03/02 08:49:44;;;;;;;7.50;2.80;;;;;;;3.88;65.86;100726.53;112455;1249;22288;-52
2023/03/02 08:52:15;;;;;;;8.80;3.00;;;;;;;3.91;64.86;100721.13;112375;1249;22457;-53
2023/03/02 08:54:43;;;;;;;10.60;3.90;;;;;;;3.95;64.65;100726.77;112678;1249;23585;-43
2023/03/02 08:57:11;;;;;;;9.20;3.30;;;;;;;3.97;64.93;100724.09;112167;1249;26492;-51
2023/03/02 09:00:13;;;;;;;6.20;2.90;;;;;;;4.06;64.64;100723.16;111466;1249;22548;-52
2023/03/02 09:03:41;;;;;;;8.50;3.10;;;;;;;4.10;64.23;100714.98;111459;1249;23542;-53
2023/03/02 09:06:55;;;;;;;8.60;2.70;;;;;;;4.16;63.65;100724.20;112021;1249;22513;-44
2023/03/02 09:10:37;;;;;;;6.50;2.90;;;;;;;4.25;63.29;100724.30;112442;1249;22392;-51
2023/03/02 09:13:45;;;;;;;6.30;2.40;;;;;;;4.33;62.69;100726.27;112570;1249;23426;-53
2023/03/02 09:16:24;;;;;;;7.80;1.90;;;;;;;4.39;63.06;100724.58;112654;1249;22423;-43
2023/03/02 09:20:13;;;;;;;5.90;2.40;;;;;;;4.48;62.72;100719.52;112780;1249;23055;-43
2023/03/02 09:23:28;;;;;;;7.50;2.70;;;;;;;4.57;62.54;100718.91;112749;1248;22430;-52
2023/03/02 09:25:54;;;;;;;9.60;2.20;;;;;;;4.61;62.11;100717.13;112820;1249;23124;-42
2023/03/02 09:28:22;;;;;;;6.80;2.10;;;;;;;4.63;61.34;100714.62;112431;1249;22520;-44
2023/03/02 09:30:56;;;;;;;8.20;2.10;;;;;;;4.66;60.92;100716.63;111628;1249;22421;-52
2023/03/02 09:33:23;;;;;;;;;;;;;;;4.71;62.18;100709.84;112638;1249;25347;-45
2023/03/02 09:35:52;;;;;;;7.00;2.60;;;;;;;4.77;61.76;100704.34;111792;1249;23031;-51
2023/03/02 09:38:19;;;;;;;5.60;2.10;;;;;;;4.83;61.91;100702.06;112180;1248;24185;-52
2023/03/02 09:40:52;;;;;;;7.90;2.20;;;;;;;4.90;60.59;100697.97;112700;1249;23438;-44
2023/03/02 09:43:41;;;;;;;6.10;2.20;;;;;;;4.96;60.90;100701.94;112098;1249;23304;-45
2023/03/02 09:46:31;;;;;;;7.30;2.50;;;;;;;4.98;60.77;100699.93;112721;1249;22370;-42
2023/03/02 09:49:16;;;;;;;7.90;2.80;;;;;;;4.97;60.58;100701.10;112617;1249;22434;-43
2023/03/02 09:52:15;;;;;;;8.20;2.50;;;;;;;5.00;61.11;100699.47;112197;1249;22433;-43
2023/03/02 09:55:21;;;;;;;13.10;2.40;;;;;;;5.01;60.50;100707.10;112073;1249;22435;-45
2023/03/02 09:57:49;;;;;;;5.20;2.10;;;;;;;5.03;60.36;100695.05;112398;1249;22485;-43
2023/03/02 10:00:24;;;;;;;8.40;2.40;;;;;;;5.05;60.50;100696.88;112537;1249;23276;-51
2023/03/02 10:03:01;;;;;;;6.50;2.50;;;;;;;5.09;60.18;100687.27;112627;1249;22396;-45
2023/03/02 10:05:44;;;;;;;10.70;2.60;;;;;;;5.11;59.89;100686.98;112680;1248;22363;-43
2023/03/02 10:08:20;;;;;;;6.00;2.30;;;;;;;5.16;58.75;100685.73;112788;1249;22392;-44
2023/03/02 10:11:22;;;;;;;6.70;1.90;;;;;;;5.21;59.47;100681.55;112533;1249;23172;-44
2023/03/02 10:13:59;;;;;;;4.20;2.40;;;;;;;5.30;59.12;100675.22;112779;1249;23029;-44
2023/03/02 10:16:31;;;;;;;14.40;2.50;;;;;;;5.30;58.20;100666.77;112540;1249;23015;-43
2023/03/02 10:19:09;;;;;;;;;;;;;;;5.28;58.01;100670.36;112662;1249;22847;-49
2023/03/02 10:21:46;;;;;;;5.20;2.10;;;;;;;5.36;58.30;100665.19;112851;1249;22470;-51
2023/03/02 10:24:33;;;;;;;4.40;2.00;;;;;;;5.57;59.25;100660.90;112845;1248;22357;-53
2023/03/02 10:27:17;;;;;;;7.10;2.00;;;;;;;5.88;58.63;100668.63;112913;1249;22449;-54
2023/03/02 10:29:44;;;;;;;6.60;2.30;;;;;;;6.13;56.06;100665.96;111978;1249;22486;-52
2023/03/02 10:32:23;;;;;;;5.30;2.00;;;;;;;6.29;56.36;100668.07;112419;1249;22727;-52
2023/03/02 10:34:52;;;;;;;4.60;1.90;;;;;;;6.62;55.67;100662.55;112691;1249;23029;-51
2023/03/02 10:37:23;;;;;;;9.20;2.20;;;;;;;7.06;54.24;100656.02;112597;1249;23966;-45
2023/03/02 10:39:51;;;;;;;5.90;2.10;;;;;;;7.54;53.11;100650.70;111824;1249;23026;-51
2023/03/02 10:42:21;;;;;;;6.20;2.10;;;;;;;7.96;52.40;100648.46;112585;1249;22451;-43
2023/03/02 10:45:27;;;;;;;2.60;1.60;;;;;;;8.38;50.68;100644.95;112042;1248;22690;-44
2023/03/02 10:48:13;;;;;;;2.30;1.30;;;;;;;8.84;49.13;100636.89;112476;1248;22471;-44
2023/03/02 10:50:41;;;;;;;5.60;2.00;;;;;;;9.16;47.95;100635.36;112644;1249;22698;-42
2023/03/02 10:53:17;;;;;;;4.20;1.90;;;;;;;9.42;47.66;100634.59;112422;1249;22447;-51
2023/03/02 10:55:49;;;;;;;4.50;1.90;;;;;;;9.69;47.41;100631.02;112549;1249;22947;-42
2023/03/02 10:58:24;;;;;;;3.50;1.90;;;;;;;9.93;46.54;100634.52;112588;1249;22855;-50
2023/03/02 11:01:05;;;;;;;6.60;2.40;;;;;;;10.20;46.43;100627.76;112712;1249;23207;-43
2023/03/02 11:03:33;;;;;;;9.00;2.50;;;;;;;10.55;45.97;100633.05;112622;1249;23101;-50
2023/03/02 11:06:19;;;;;;;5.70;2.00;;;;;;;10.75;45.65;100631.06;112873;1249;23164;-53
2023/03/02 11:08:46;;;;;;;10.80;3.20;;;;;;;11.05;45.41;100632.05;112849;1249;22422;-50
2023/03/02 11:11:21;;;;;;;6.80;2.30;;;;;;;11.40;44.93;100632.32;112782;1249;22373;-43
2023/03/02 11:13:49;;;;;;;6.30;1.90;;;;;;;11.73;44.77;100624.85;112826;1249;22680;-51
2023/03/02 11:16:16;;;;;;;5.10;2.10;;;;;;;11.90;43.74;100630.48;112506;1249;22363;-43
2023/03/02 11:18:53;;;;;;;5.50;2.30;;;;;;;11.98;43.60;100631.17;112745;1249;22254;-52
2023/03/02 11:21:30;;;;;;;9.80;2.20;;;;;;;11.92;42.55;100626.81;112628;1249;22401;-56
2023/03/02 11:24:05;;;;;;;4.80;1.80;;;;;;;11.78;42.92;100623.64;112482;1249;22372;-53
2023/03/02 11:26:42;;;;;;;5.20;2.10;;;;;;;11.81;43.01;100624.87;112591;1249;22420;-43
2023/03/02 11:29:27;;;;;;;4.20;2.30;;;;;;;11.88;43.24;100621.73;111999;1248;23438;-52
2023/03/02 11:32:21;;;;;;;4.10;2.20;;;;;;;11.88;42.50;100621.05;112922;1249;22256;-53
2023/03/02 11:35:18;;;;;;;7.10;2.00;;;;;;;11.75;42.37;100619.44;112779;1249;22423;-51
2023/03/02 11:37:50;;;;;;;4.80;2.10;;;;;;;11.67;43.04;100613.85;112479;1248;22507;-51
2023/03/02 11:40:36;;;;;;;5.30;1.80;;;;;;;11.63;43.05;100609.98;112648;1249;22419;-44
2023/03/02 11:43:03;;;;;;;3.90;1.90;;;;;;;11.60;43.78;100605.80;112599;1248;22420;-50
2023/03/02 11:45:36;;;;;;;6.80;2.10;;;;;;;11.61;43.41;100601.61;112644;1249;22461;-52
2023/03/02 11:48:18;;;;;;;3.20;1.80;;;;;;;11.39;43.56;100605.08;112304;1249;22441;-48
2023/03/02 11:50:50;;;;;;;3.90;1.70;;;;;;;11.22;44.48;100605.21;112728;1249;22329;-49
2023/03/02 11:53:17;;;;;;;3.20;1.60;;;;;;;11.10;44.18;100600.98;112737;1249;22379;-49
2023/03/02 11:55:50;;;;;;;3.70;2.00;;;;;;;10.98;44.88;100607.27;112578;1249;22343;-51
2023/03/02 11:58:28;;;;;;;6.60;2.60;;;;;;;10.85;44.82;100602.66;112775;1249;22886;-43
2023/03/02 12:00:55;;;;;;;6.30;2.00;;;;;;;10.81;44.11;100595.14;112504;1249;22591;-51
2023/03/02 12:03:29;;;;;;;4.30;2.00;;;;;;;10.55;44.33;100598.34;112631;1249;22379;-51
2023/03/02 12:05:59;;;;;;;5.60;2.00;;;;;;;10.32;44.66;100600.48;112805;1249;22285;-51
2023/03/02 12:08:42;;;;;;;3.60;1.80;;;;;;;10.32;45.40;100594.56;112786;1249;22381;-42
2023/03/02 12:11:15;;;;;;;6.30;2.10;;;;;;;10.43;45.45;100596.02;112569;1249;22377;-43
2023/03/02 12:13:48;;;;;;;4.80;1.90;;;;;;;10.58;45.46;100597.85;112834;1249;22448;-50
2023/03/02 12:16:18;;;;;;;;;;;;;;;10.60;44.99;100594.00;112828;1249;22371;-51
2023/03/02 12:18:48;;;;;;;5.20;1.70;;;;;;;10.44;45.54;100589.73;112816;1248;22379;-50
2023/03/02 12:21:20;;;;;;;3.00;1.40;;;;;;;10.38;45.67;100591.13;112844;1249;22338;-45
2023/03/02 12:23:49;;;;;;;5.20;1.50;;;;;;;10.38;45.27;100586.92;112859;1249;22404;-44
2023/03/02 12:26:19;;;;;;;2.90;1.40;;;;;;;10.46;45.77;100588.35;112913;1249;22354;-50
2023/03/02 12:29:09;;;;;;;6.30;1.60;;;;;;;10.76;45.67;100588.84;112406;1249;22634;-41
2023/03/02 12:31:40;;;;;;;4.80;1.50;;;;;;;11.01;45.65;100581.94;112910;1249;22292;-42
2023/03/02 12:34:19;;;;;;;4.70;2.10;;;;;;;11.05;44.33;100576.54;112497;1249;25382;-51
2023/03/02 12:36:46;;;;;;;4.20;1.90;;;;;;;10.89;45.15;100574.57;112742;1249;22358;-51
2023/03/02 12:39:22;;;;;;;5.20;2.00;;;;;;;10.79;44.93;100569.84;112612;1249;22401;-43
2023/03/02 12:41:52;;;;;;;3.70;1.70;;;;;;;10.72;45.34;100572.08;112830;1249;23245;-43
2023/03/02 12:44:32;;;;;;;5.10;1.60;;;;;;;10.63;45.19;100565.93;112684;1249;22385;-43
2023/03/02 12:46:59;;;;;;;3.20;1.70;;;;;;;10.52;46.03;100565.55;112530;1249;22246;-42
2023/03/02 12:50:01;;;;;;;3.80;2.00;;;;;;;10.44;46.09;100562.02;111502;1249;22494;-50
2023/03/02 12:52:32;;;;;;;5.60;1.80;;;;;;;10.25;45.61;100563.83;112699;1249;22471;-51
2023/03/02 12:55:16;;;;;;;10.10;2.00;;;;;;;10.08;45.96;100564.23;112959;1249;22485;-50
2023/03/02 12:57:53;;;;;;;3.20;1.60;;;;;;;10.10;46.20;100559.52;112227;1249;22541;-51
2023/03/02 13:00:23;;;;;;;3.90;1.50;;;;;;;10.09;46.01;100560.05;111715;1249;22858;-45
2023/03/02 13:02:52;;;;;;;2.20;1.20;;;;;;;9.82;46.25;100571.89;112247;1249;22513;-43
2023/03/02 13:05:21;;;;;;;4.40;2.00;;;;;;;9.49;46.09;100570.74;112528;1248;24557;-43
2023/03/02 13:08:07;;;;;;;3.70;1.80;;;;;;;9.20;46.23;100563.52;112970;1249;22352;-44
2023/03/02 13:10:39;;;;;;;2.70;1.20;;;;;;;9.06;46.85;100555.72;112504;1249;22512;-52
2023/03/02 13:13:37;;;;;;;3.10;1.50;;;;;;;9.00;47.49;100552.70;113004;1249;22441;-41
2023/03/02 13:16:27;;;;;;;5.40;1.60;;;;;;;8.91;46.68;100548.95;112243;1256;22304;-42
2023/03/02 13:18:56;;;;;;;4.30;1.50;;;;;;;8.79;48.14;100546.91;112078;1256;22422;-50
2023/03/02 13:21:29;;;;;;;2.90;1.30;;;;;;;8.70;48.94;100542.46;110734;1256;24262;-51
2023/03/02 13:23:56;;;;;;;11.80;4.60;;;;;;;8.62;49.08;100535.05;112119;1257;22490;-49
2023/03/02 13:26:33;;;;;;;2.40;1.20;;;;;;;8.58;49.73;100536.05;112157;1256;22499;-41
2023/03/02 13:29:06;;;;;;;4.10;1.50;;;;;;;8.62;49.89;100533.84;112269;1256;23297;-52
2023/03/02 13:31:33;;;;;;;3.20;1.50;;;;;;;8.94;50.50;100533.84;112237;1256;22224;-52
2023/03/02 13:34:00;;;;;;;6.10;1.50;;;;;;;9.26;49.49;100526.34;112276;1256;22474;-42
2023/03/02 13:36:34;;;;;;;4.50;1.10;;;;;;;9.33;48.33;100529.17;111762;1256;22242;-44
2023/03/02 13:39:02;;;;;;;5.10;1.60;;;;;;;9.43;47.95;100530.48;110625;1256;22495;-52
